Hauptseite
METAR-TAF:

METAR-TAF

Flughäfen :

Luxemburg, Luxemburg

Flughafen Luxemburg

Breite: 49-37N, Länge: 006-13E, Höhe: 376 m

Beobachtung

Neuester Wetterbericht von vor 20 Minuten, um 02:20 UTC
Wind 4 kt aus West
Temperatur 13°C
Luftfeuchtigkeit 94%
Luftdruck 1012 hPa
Sichtweite 10 km oder mehr

METAR: ELLX 280220Z AUTO 28004KT 9999 OVC058/// 13/12 Q1012 NOSIG

Zeit: 04:40 (02:40 UTC)

Prognose

Neuester Wetterbericht von vor 3 Stunden und 40 Minuten, um 23:00 UTC
Gültige Prognose vom 28 um 00 UTC bis 29 um 06 UTC
Wind 8 kt aus West/Südwest
Sichtweite 10 km oder mehr
Leicht bewölkt in der Höhe von 4500 ft
Wahrscheinlichkeit 30% :
Zeitweise
vom 28 um 09 UTC bis 28 um 17 UTC
Wind 15 kt aus West, Böen bis zu 25 kt

TAF: ELLX 272300Z 2800/2906 24008KT 9999 FEW045 PROB30 TEMPO 2809/2817 26015G25KT

Wetterbeobachtungen und Prognosen von mehr als 4000 Flughäfen (METAR und TAF Bericht).

Die verfügbaren Stationen werden durch gelbe und rote Markierungen auf der Karte dargestellt.

Führen Sie die Maus auf sie, um den Namen der Station zu sehen.

Darauf klicken, um die Beobachtung von Wetterbeobachtungen und Prognosen zu sehen.

Um die Karte zu ändern : klicken Sie auf den grünen Tasten mit einem schwarzen Kreuz Zum Vergrößern, auf den grünen Button mit einem Gedankenstrich zu verkleinern, oder auf die grünen Pfeile für benachbarte Karten.


METAR-TAF: